createdAt,value
2017-11-19T00:00:54.983Z,3.00
2017-11-19T00:01:57.656Z,3.02
2017-11-19T00:03:00.269Z,3.04
2017-11-19T00:04:02.908Z,3.02
2017-11-19T00:05:05.557Z,3.00
2017-11-19T00:06:08.161Z,2.98
2017-11-19T00:07:10.768Z,2.99
2017-11-19T00:08:13.408Z,3.00
2017-11-19T00:09:16.053Z,3.02
2017-11-19T00:10:18.749Z,3.00
2017-11-19T00:11:21.665Z,3.02
2017-11-19T00:12:24.320Z,3.03
2017-11-19T00:13:26.972Z,3.01
2017-11-19T00:14:29.605Z,3.01
2017-11-19T00:15:32.230Z,3.03
2017-11-19T00:16:34.881Z,3.05
2017-11-19T00:17:37.900Z,3.06
2017-11-19T00:18:40.551Z,3.08
2017-11-19T00:19:43.199Z,3.12
2017-11-19T00:20:45.865Z,3.10
2017-11-19T00:21:48.509Z,3.10
2017-11-19T00:22:51.208Z,3.15
2017-11-19T00:23:54.151Z,3.15
2017-11-19T00:24:57.729Z,3.17
2017-11-19T00:26:00.968Z,3.20
2017-11-19T00:27:03.600Z,3.16
2017-11-19T00:28:06.253Z,3.08
2017-11-19T00:29:08.886Z,3.09
2017-11-19T00:30:11.786Z,3.11
2017-11-19T00:31:14.437Z,3.13
2017-11-19T00:32:17.083Z,3.14
2017-11-19T00:33:19.707Z,3.15
2017-11-19T00:34:22.440Z,3.14
2017-11-19T00:35:25.129Z,3.12
2017-11-19T00:36:28.077Z,3.15
2017-11-19T00:37:30.767Z,3.18
2017-11-19T00:38:33.372Z,3.19
2017-11-19T00:39:36.015Z,3.19
2017-11-19T00:40:38.673Z,3.22
2017-11-19T00:41:41.300Z,3.24
2017-11-19T00:42:44.226Z,3.18
2017-11-19T00:43:46.840Z,3.16
2017-11-19T00:44:49.514Z,3.19
2017-11-19T00:45:52.146Z,3.11
2017-11-19T00:46:55.498Z,3.04
2017-11-19T00:47:58.162Z,3.05
2017-11-19T00:49:01.342Z,3.06
2017-11-19T00:50:04.069Z,3.07
2017-11-19T00:51:06.840Z,3.07
2017-11-19T00:52:09.476Z,3.06
2017-11-19T00:53:12.163Z,3.07
2017-11-19T00:54:14.782Z,3.08
2017-11-19T00:55:17.725Z,3.05
2017-11-19T00:56:20.371Z,3.02
2017-11-19T00:57:23.020Z,3.02
2017-11-19T00:58:25.635Z,3.05
2017-11-19T00:59:28.262Z,3.06
2017-11-19T01:00:30.918Z,3.05
2017-11-19T01:01:33.867Z,3.06
2017-11-19T01:02:36.483Z,3.09
2017-11-19T01:03:40.098Z,3.14
2017-11-19T01:04:42.780Z,3.19
2017-11-19T01:05:45.502Z,3.18
2017-11-19T01:06:48.155Z,3.18
2017-11-19T01:07:51.127Z,3.20
2017-11-19T01:08:53.765Z,3.22
2017-11-19T01:09:56.406Z,3.20
2017-11-19T01:10:59.103Z,3.21
2017-11-19T01:12:01.782Z,3.21
2017-11-19T01:13:04.454Z,3.14
2017-11-19T01:14:07.508Z,3.14
2017-11-19T01:15:10.171Z,3.21
2017-11-19T01:16:12.744Z,3.20
2017-11-19T01:17:15.418Z,3.17
2017-11-19T01:18:18.041Z,3.26
2017-11-19T01:19:20.686Z,3.30
2017-11-19T01:20:23.681Z,3.21
2017-11-19T01:21:26.322Z,3.15
2017-11-19T01:22:28.967Z,3.17
2017-11-19T01:23:31.647Z,3.13
2017-11-19T01:24:34.397Z,3.12
2017-11-19T01:25:37.024Z,3.13
2017-11-19T01:26:39.957Z,3.12
2017-11-19T01:27:42.529Z,3.13
2017-11-19T01:28:45.101Z,3.15
2017-11-19T01:29:47.728Z,3.14
2017-11-19T01:30:50.317Z,3.11
2017-11-19T01:31:52.940Z,3.18
2017-11-19T01:32:55.557Z,3.21
2017-11-19T01:33:58.183Z,3.21
2017-11-19T01:35:00.815Z,3.21
2017-11-19T01:36:03.397Z,3.18
2017-11-19T01:37:05.973Z,3.24
2017-11-19T01:38:08.958Z,3.29
2017-11-19T01:39:11.598Z,3.32
2017-11-19T01:40:14.242Z,3.36
2017-11-19T01:41:16.881Z,3.42
2017-11-19T01:42:19.510Z,3.43
2017-11-19T01:43:22.168Z,3.36
2017-11-19T01:44:25.122Z,3.38
2017-11-19T01:45:27.790Z,3.40
2017-11-19T01:46:30.461Z,3.39
2017-11-19T01:47:33.114Z,3.21
2017-11-19T01:48:35.783Z,3.09
2017-11-19T01:49:38.920Z,2.99
2017-11-19T01:50:41.879Z,2.92
2017-11-19T01:51:44.497Z,2.90
2017-11-19T01:52:47.194Z,2.84
2017-11-19T01:53:49.852Z,2.80
2017-11-19T01:54:52.494Z,2.77
2017-11-19T01:55:55.142Z,2.78
2017-11-19T01:56:58.063Z,2.81
2017-11-19T01:58:00.708Z,2.80
2017-11-19T01:59:03.324Z,2.78
2017-11-19T02:00:05.969Z,2.80
2017-11-19T02:01:08.608Z,2.81
2017-11-19T02:02:11.256Z,2.77
2017-11-19T02:03:14.163Z,2.79
2017-11-19T02:04:16.817Z,2.77
2017-11-19T02:05:19.445Z,2.76
2017-11-19T02:06:22.115Z,2.72
2017-11-19T02:07:24.747Z,2.74
2017-11-19T02:08:27.347Z,2.71
2017-11-19T02:09:30.366Z,2.70
2017-11-19T02:10:33.065Z,2.69
2017-11-19T02:11:36.744Z,2.71
2017-11-19T02:12:39.456Z,2.71
2017-11-19T02:13:42.349Z,2.69
2017-11-19T02:14:44.990Z,2.68
2017-11-19T02:15:48.128Z,2.61
2017-11-19T02:16:50.779Z,2.62
2017-11-19T02:17:53.445Z,2.62
2017-11-19T02:18:56.138Z,2.64
2017-11-19T02:19:58.759Z,2.67
2017-11-19T02:21:01.429Z,2.65
2017-11-19T02:22:04.381Z,2.64
2017-11-19T02:23:07.067Z,2.63
2017-11-19T02:24:09.729Z,2.63
2017-11-19T02:25:12.400Z,2.60
2017-11-19T02:26:15.215Z,2.60
2017-11-19T02:27:17.933Z,2.61
2017-11-19T02:28:20.566Z,2.61
2017-11-19T02:29:23.179Z,2.61
2017-11-19T02:30:25.800Z,2.58
2017-11-19T02:31:28.467Z,2.53
2017-11-19T02:32:31.136Z,2.51
2017-11-19T02:33:34.054Z,2.43
2017-11-19T02:34:36.699Z,2.44
2017-11-19T02:35:39.357Z,2.41
2017-11-19T02:36:42.016Z,2.47
2017-11-19T02:37:44.682Z,2.47
2017-11-19T02:38:47.328Z,2.42
2017-11-19T02:39:49.948Z,2.33
2017-11-19T02:40:52.611Z,2.33
2017-11-19T02:41:55.279Z,2.33
2017-11-19T02:42:57.920Z,2.35
2017-11-19T02:44:00.552Z,2.20
2017-11-19T02:45:03.501Z,2.15
2017-11-19T02:46:06.140Z,2.12
2017-11-19T02:47:08.825Z,2.10
2017-11-19T02:48:11.455Z,1.98
2017-11-19T02:49:14.129Z,1.93
2017-11-19T02:50:16.753Z,1.80
2017-11-19T02:51:19.640Z,1.80
2017-11-19T02:52:22.277Z,1.84
2017-11-19T02:53:24.923Z,1.80
2017-11-19T02:54:27.581Z,1.82
2017-11-19T02:55:30.226Z,1.88
2017-11-19T02:56:32.899Z,1.94
2017-11-19T02:57:35.833Z,1.86
2017-11-19T02:58:38.470Z,1.87
2017-11-19T02:59:41.112Z,1.83
2017-11-19T03:00:43.737Z,1.87
2017-11-19T03:01:46.421Z,1.93
2017-11-19T03:02:49.043Z,1.95
2017-11-19T03:03:51.976Z,1.89
2017-11-19T03:04:54.638Z,1.89
2017-11-19T03:05:57.307Z,1.94
2017-11-19T03:06:59.920Z,1.97
2017-11-19T03:08:02.567Z,1.98
2017-11-19T03:09:05.121Z,2.00
2017-11-19T03:10:08.045Z,1.98
2017-11-19T03:11:10.701Z,1.97
2017-11-19T03:12:13.296Z,1.98
2017-11-19T03:13:15.878Z,1.97
2017-11-19T03:14:19.255Z,1.94
2017-11-19T03:15:21.888Z,1.95
2017-11-19T03:16:24.869Z,1.96
2017-11-19T03:17:27.511Z,1.94
2017-11-19T03:18:30.158Z,1.92
2017-11-19T03:19:32.790Z,1.90
2017-11-19T03:20:35.425Z,1.90
2017-11-19T03:21:38.042Z,1.91
2017-11-19T03:22:40.985Z,1.92
2017-11-19T03:23:43.644Z,1.91
2017-11-19T03:24:46.288Z,1.90
2017-11-19T03:25:48.885Z,1.88
2017-11-19T03:26:51.527Z,1.82
2017-11-19T03:27:55.138Z,1.81
2017-11-19T03:28:57.997Z,1.82
2017-11-19T03:30:00.587Z,1.82
2017-11-19T03:31:03.256Z,1.75
2017-11-19T03:32:05.891Z,1.73
2017-11-19T03:33:08.535Z,1.68
2017-11-19T03:34:11.147Z,1.66
2017-11-19T03:35:14.065Z,1.65
2017-11-19T03:36:16.687Z,1.64
2017-11-19T03:37:19.319Z,1.61
2017-11-19T03:38:22.017Z,1.58
2017-11-19T03:39:24.679Z,1.54
2017-11-19T03:40:27.448Z,1.54
2017-11-19T03:41:30.368Z,1.50
2017-11-19T03:42:32.954Z,1.50
2017-11-19T03:43:35.596Z,1.52
2017-11-19T03:44:38.294Z,1.51
2017-11-19T03:45:40.999Z,1.49
2017-11-19T03:46:43.623Z,1.47
2017-11-19T03:47:46.543Z,1.49
2017-11-19T03:48:49.196Z,1.48
2017-11-19T03:49:51.822Z,1.46
2017-11-19T03:50:54.509Z,1.47
2017-11-19T03:51:57.150Z,1.51
2017-11-19T03:52:59.855Z,1.47
2017-11-19T03:54:03.756Z,1.48
2017-11-19T03:55:06.399Z,1.47
2017-11-19T03:56:09.030Z,1.44
2017-11-19T03:57:11.609Z,1.43
2017-11-19T03:58:14.197Z,1.39
2017-11-19T03:59:16.784Z,1.37
2017-11-19T04:00:19.681Z,1.39
2017-11-19T04:01:22.251Z,1.35
2017-11-19T04:02:24.890Z,1.32
2017-11-19T04:03:27.464Z,1.31
2017-11-19T04:04:30.077Z,1.26
2017-11-19T04:05:32.718Z,1.24
2017-11-19T04:06:35.732Z,1.24
2017-11-19T04:07:38.381Z,1.27
2017-11-19T04:08:41.055Z,1.26
2017-11-19T04:09:43.726Z,1.29
2017-11-19T04:10:46.370Z,1.28
2017-11-19T04:11:48.994Z,1.26
2017-11-19T04:12:51.886Z,1.25
2017-11-19T04:13:54.535Z,1.25
2017-11-19T04:14:57.164Z,1.26
2017-11-19T04:15:59.836Z,1.29
2017-11-19T04:17:02.484Z,1.40
2017-11-19T04:18:05.166Z,1.48
2017-11-19T04:19:08.086Z,1.51
2017-11-19T04:20:11.014Z,1.56
2017-11-19T04:21:13.692Z,1.62
2017-11-19T04:22:16.368Z,1.68
2017-11-19T04:23:19.020Z,1.69
2017-11-19T04:24:21.690Z,1.71
2017-11-19T04:25:24.616Z,1.73
2017-11-19T04:26:27.252Z,1.69
2017-11-19T04:27:29.934Z,1.70
2017-11-19T04:28:32.574Z,1.71
2017-11-19T04:29:35.222Z,1.73
2017-11-19T04:30:37.845Z,1.72
2017-11-19T04:31:40.779Z,1.69
2017-11-19T04:32:43.454Z,1.64
2017-11-19T04:33:46.131Z,1.65
2017-11-19T04:34:48.767Z,1.67
2017-11-19T04:35:51.417Z,1.70
2017-11-19T04:36:54.046Z,1.66
2017-11-19T04:37:56.981Z,1.67
2017-11-19T04:38:59.662Z,1.63
2017-11-19T04:40:02.283Z,1.63
2017-11-19T04:41:04.903Z,1.64
2017-11-19T04:42:07.558Z,1.65
2017-11-19T04:43:10.199Z,1.65
2017-11-19T04:44:13.192Z,1.66
2017-11-19T04:45:15.836Z,1.65
2017-11-19T04:46:18.480Z,1.69
2017-11-19T04:47:21.102Z,1.78
2017-11-19T04:48:23.794Z,1.84
2017-11-19T04:49:26.464Z,1.89
2017-11-19T04:50:29.386Z,1.93
2017-11-19T04:51:31.968Z,1.94
2017-11-19T04:52:34.584Z,1.96
2017-11-19T04:53:37.223Z,1.97
2017-11-19T04:54:39.840Z,1.99
2017-11-19T04:55:42.525Z,1.97
2017-11-19T04:56:45.443Z,1.97
2017-11-19T04:57:48.123Z,1.98
2017-11-19T04:58:50.785Z,1.99
2017-11-19T04:59:53.448Z,1.96
2017-11-19T05:15:17.040Z,1.95
2017-11-19T05:16:19.608Z,1.98
2017-11-19T05:17:23.279Z,1.98
2017-11-19T05:18:25.791Z,2.02
2017-11-19T05:19:28.401Z,2.03
2017-11-19T05:20:31.174Z,2.07
2017-11-19T05:21:33.762Z,2.04
2017-11-19T05:22:36.339Z,2.05
2017-11-19T05:23:39.117Z,2.06
2017-11-19T05:24:41.630Z,2.11
2017-11-19T05:25:44.269Z,2.12
2017-11-19T05:26:47.149Z,2.12
2017-11-19T05:27:49.763Z,2.14
2017-11-19T05:28:52.346Z,2.19
2017-11-19T05:29:54.850Z,2.22
2017-11-19T05:30:57.341Z,2.25
2017-11-19T05:31:59.839Z,2.28
2017-11-19T05:33:02.692Z,2.30
2017-11-19T05:34:05.211Z,2.34
2017-11-19T05:35:07.718Z,2.32
2017-11-19T05:36:10.349Z,2.33
2017-11-19T05:37:12.973Z,2.33
2017-11-19T05:38:15.540Z,2.32
2017-11-19T05:39:18.396Z,2.32
2017-11-19T05:40:20.990Z,2.33
2017-11-19T05:41:23.571Z,2.33
2017-11-19T05:42:26.130Z,2.34
2017-11-19T05:43:28.702Z,2.36
2017-11-19T05:44:31.278Z,2.37
2017-11-19T05:45:34.149Z,2.41
2017-11-19T05:46:36.743Z,2.41
2017-11-19T05:47:39.385Z,2.41
2017-11-19T05:48:41.969Z,2.40
2017-11-19T05:49:44.535Z,2.41
2017-11-19T05:50:47.118Z,2.42
2017-11-19T05:51:49.952Z,2.44
2017-11-19T05:52:52.596Z,2.48
2017-11-19T05:53:55.209Z,2.48
2017-11-19T05:54:57.871Z,2.56
2017-11-19T05:56:00.508Z,2.58
2017-11-19T05:57:03.202Z,2.57
2017-11-19T05:58:06.130Z,2.59
2017-11-19T05:59:08.786Z,2.57
2017-11-19T06:00:11.504Z,2.56
2017-11-19T06:01:14.139Z,2.56
2017-11-19T06:02:16.780Z,2.55
2017-11-19T06:03:19.513Z,2.57
2017-11-19T06:04:22.466Z,2.58
2017-11-19T06:05:25.141Z,2.56
2017-11-19T06:06:27.793Z,2.56
2017-11-19T06:07:30.434Z,2.55
2017-11-19T06:08:33.080Z,2.55
2017-11-19T06:09:35.794Z,2.58
2017-11-19T06:10:38.741Z,2.57
2017-11-19T06:11:41.374Z,2.58
2017-11-19T06:12:44.032Z,2.56
2017-11-19T06:13:46.719Z,2.57
2017-11-19T06:14:49.377Z,2.58
2017-11-19T06:15:52.048Z,2.59
2017-11-19T06:16:55.000Z,2.54
2017-11-19T06:17:57.649Z,2.56
2017-11-19T06:19:00.296Z,2.58
2017-11-19T06:20:02.959Z,2.60
2017-11-19T06:21:05.614Z,2.60
2017-11-19T06:22:08.299Z,2.60
2017-11-19T06:23:11.211Z,2.61
2017-11-19T06:24:13.919Z,2.64
2017-11-19T06:25:16.598Z,2.66
2017-11-19T06:26:19.286Z,2.66
2017-11-19T06:27:21.935Z,2.68
2017-11-19T06:28:24.619Z,2.68
2017-11-19T06:29:27.575Z,2.67
2017-11-19T06:30:30.270Z,2.70
2017-11-19T06:31:32.873Z,2.72
2017-11-19T06:32:35.565Z,2.74
2017-11-19T06:33:38.199Z,2.74
2017-11-19T06:34:40.876Z,2.74
2017-11-19T06:35:43.799Z,2.75
2017-11-19T06:36:46.467Z,2.75
2017-11-19T06:37:49.344Z,2.77
2017-11-19T06:38:52.003Z,2.78
2017-11-19T06:39:54.894Z,2.81
2017-11-19T06:40:57.736Z,2.81
2017-11-19T06:42:00.641Z,2.81
2017-11-19T06:43:05.014Z,2.87
2017-11-19T06:44:07.782Z,2.88
2017-11-19T06:45:10.954Z,2.88
2017-11-19T06:46:13.569Z,2.86
2017-11-19T06:47:16.139Z,2.88
2017-11-19T06:48:19.444Z,2.86
2017-11-19T06:49:22.050Z,2.89
2017-11-19T06:50:24.733Z,2.90
2017-11-19T06:51:27.297Z,2.91
2017-11-19T06:52:30.037Z,2.93
2017-11-19T06:53:32.711Z,2.91
2017-11-19T06:54:35.753Z,2.94
2017-11-19T06:55:38.441Z,2.96
2017-11-19T06:56:41.187Z,2.96
2017-11-19T06:57:43.823Z,2.99
2017-11-19T06:58:46.489Z,2.97
2017-11-19T06:59:49.157Z,2.99
2017-11-19T07:00:52.142Z,3.02
2017-11-19T07:01:55.601Z,3.03
2017-11-19T07:02:58.199Z,3.02
2017-11-19T07:04:00.845Z,3.08
2017-11-19T07:05:03.490Z,3.07
2017-11-19T07:06:06.065Z,3.08
2017-11-19T07:07:09.128Z,3.08
2017-11-19T07:08:11.721Z,3.09
2017-11-19T07:09:14.404Z,3.06
2017-11-19T07:10:16.969Z,3.08
2017-11-19T07:11:19.521Z,3.08
2017-11-19T07:12:22.123Z,3.15
2017-11-19T07:13:25.082Z,3.14
2017-11-19T07:14:27.627Z,3.15
2017-11-19T07:15:30.198Z,3.22
2017-11-19T07:16:32.827Z,3.15
2017-11-19T07:17:35.456Z,3.16
2017-11-19T07:18:38.070Z,3.14
2017-11-19T07:19:41.160Z,3.19
2017-11-19T07:20:43.738Z,3.22
2017-11-19T07:21:46.221Z,3.26
2017-11-19T07:22:48.708Z,3.28
2017-11-19T07:23:51.283Z,3.28
2017-11-19T07:24:53.900Z,3.31
2017-11-19T07:25:56.992Z,3.27
2017-11-19T07:26:59.658Z,3.26
2017-11-19T07:28:02.505Z,3.26
2017-11-19T07:29:05.336Z,3.27
2017-11-19T07:30:08.061Z,3.26
2017-11-19T07:31:10.833Z,3.26
2017-11-19T07:32:13.992Z,3.25
2017-11-19T07:33:16.675Z,3.24
2017-11-19T07:34:19.391Z,3.10
2017-11-19T07:35:22.012Z,3.12
2017-11-19T07:36:24.790Z,3.12
2017-11-19T07:37:27.464Z,3.11
2017-11-19T07:38:30.485Z,3.09
2017-11-19T07:39:33.112Z,3.14
2017-11-19T07:40:35.836Z,3.15
2017-11-19T07:41:38.511Z,3.15
2017-11-19T07:42:41.155Z,3.21
2017-11-19T07:43:43.780Z,3.21
2017-11-19T07:44:46.857Z,3.13
2017-11-19T07:45:49.521Z,3.11
2017-11-19T07:46:52.170Z,3.14
2017-11-19T07:47:54.839Z,3.15
2017-11-19T07:48:57.492Z,3.15
2017-11-19T07:50:00.148Z,3.17
2017-11-19T07:51:03.278Z,3.08
2017-11-19T07:52:05.901Z,3.09
2017-11-19T07:53:08.616Z,3.15
2017-11-19T07:54:11.247Z,3.17
2017-11-19T07:55:13.893Z,3.14
2017-11-19T07:56:16.539Z,3.13
2017-11-19T07:57:20.732Z,3.09
2017-11-19T07:58:23.401Z,3.15
2017-11-19T07:59:26.034Z,3.19
2017-11-19T08:00:28.722Z,3.18
2017-11-19T08:01:31.333Z,3.15
2017-11-19T08:02:34.006Z,3.18
2017-11-19T08:03:37.121Z,3.22
2017-11-19T08:04:39.736Z,3.23
2017-11-19T08:05:42.375Z,3.23
2017-11-19T08:06:45.078Z,3.26
2017-11-19T08:07:47.789Z,3.33
2017-11-19T08:08:50.517Z,3.34
2017-11-19T08:09:53.504Z,3.37
2017-11-19T08:10:57.364Z,3.33
2017-11-19T08:12:00.036Z,3.35
2017-11-19T08:13:02.793Z,3.37
2017-11-19T08:14:05.532Z,3.35
2017-11-19T08:15:08.288Z,3.39
2017-11-19T08:16:11.407Z,3.41
2017-11-19T08:17:14.764Z,3.45
2017-11-19T08:18:17.479Z,3.41
2017-11-19T08:19:20.189Z,3.44
2017-11-19T08:20:22.867Z,3.41
2017-11-19T08:21:25.566Z,3.43
2017-11-19T08:22:28.628Z,3.46
2017-11-19T08:23:31.270Z,3.42
2017-11-19T08:24:33.920Z,3.47
2017-11-19T08:25:36.650Z,3.50
2017-11-19T08:26:39.335Z,3.52
2017-11-19T08:27:41.977Z,3.55
2017-11-19T08:28:44.985Z,3.69
2017-11-19T08:29:47.678Z,3.82
2017-11-19T08:30:50.278Z,3.83
2017-11-19T08:31:52.845Z,3.77
2017-11-19T08:32:55.484Z,3.77
2017-11-19T08:33:58.154Z,3.82
2017-11-19T08:35:01.257Z,3.76
2017-11-19T08:36:03.904Z,3.81
2017-11-19T08:37:06.544Z,3.85
2017-11-19T08:38:09.194Z,3.89
2017-11-19T08:39:11.840Z,4.01
2017-11-19T08:40:14.491Z,4.13
2017-11-19T08:41:17.700Z,4.13
2017-11-19T08:42:20.370Z,4.06
2017-11-19T08:43:23.079Z,4.08
2017-11-19T08:44:25.757Z,4.12
2017-11-19T08:45:28.418Z,4.13
2017-11-19T08:46:31.027Z,4.19
2017-11-19T08:47:34.033Z,4.19
2017-11-19T08:48:36.731Z,4.23
2017-11-19T08:49:39.313Z,4.21
2017-11-19T08:50:41.910Z,4.25
2017-11-19T08:51:44.531Z,4.31
2017-11-19T08:52:47.120Z,4.38
2017-11-19T08:53:49.987Z,4.21
2017-11-19T08:54:52.692Z,4.16
2017-11-19T08:55:55.335Z,4.11
2017-11-19T08:56:57.993Z,4.04
2017-11-19T08:58:00.601Z,4.06
2017-11-19T08:59:03.200Z,3.95
2017-11-19T09:00:06.121Z,3.92
2017-11-19T09:01:08.870Z,3.98
2017-11-19T09:02:11.564Z,4.17
2017-11-19T09:03:14.318Z,4.34
2017-11-19T09:04:17.031Z,4.31
2017-11-19T09:05:19.748Z,4.20
2017-11-19T09:06:22.687Z,4.17
2017-11-19T09:07:25.404Z,4.08
2017-11-19T09:08:28.088Z,4.09
2017-11-19T09:09:30.746Z,4.04
2017-11-19T09:10:33.473Z,4.11
2017-11-19T09:11:36.420Z,4.11
2017-11-19T09:12:39.108Z,4.12
2017-11-19T09:13:41.813Z,4.10
2017-11-19T09:14:45.335Z,4.19
2017-11-19T09:15:48.101Z,4.29
2017-11-19T09:16:50.786Z,4.19
2017-11-19T09:17:53.716Z,4.20
2017-11-19T09:18:56.363Z,4.18
2017-11-19T09:19:59.036Z,4.16
2017-11-19T09:21:01.752Z,4.17
2017-11-19T09:22:04.436Z,4.18
2017-11-19T09:23:07.114Z,4.29
2017-11-19T09:24:10.024Z,4.28
2017-11-19T09:25:12.595Z,4.27
2017-11-19T09:26:15.211Z,4.27
2017-11-19T09:27:17.773Z,4.31
2017-11-19T09:28:20.417Z,4.29
2017-11-19T09:29:23.098Z,4.31
2017-11-19T09:30:26.138Z,4.39
2017-11-19T09:31:28.807Z,4.33
2017-11-19T09:32:31.502Z,4.42
2017-11-19T09:33:34.582Z,4.41
2017-11-19T09:34:37.292Z,4.29
2017-11-19T09:35:40.108Z,4.33
2017-11-19T09:36:43.106Z,4.37
2017-11-19T09:37:45.905Z,4.16
2017-11-19T09:38:48.616Z,4.19
2017-11-19T09:39:51.203Z,4.26
2017-11-19T09:40:53.855Z,4.28
2017-11-19T09:41:56.454Z,4.23
2017-11-19T09:42:59.352Z,4.15
2017-11-19T09:44:01.996Z,4.18
2017-11-19T09:45:04.593Z,4.21
2017-11-19T09:46:07.299Z,4.20
2017-11-19T09:47:09.968Z,4.33
2017-11-19T09:48:12.669Z,4.56
2017-11-19T09:49:15.684Z,4.65
2017-11-19T09:50:18.364Z,4.63
2017-11-19T09:51:21.036Z,4.87
2017-11-19T09:52:23.736Z,4.90
2017-11-19T09:53:26.458Z,5.01
2017-11-19T09:54:29.059Z,5.14
2017-11-19T09:55:31.918Z,5.01
2017-11-19T09:56:34.457Z,4.79
2017-11-19T09:57:37.001Z,4.88
2017-11-19T09:58:39.559Z,4.85
2017-11-19T09:59:42.193Z,5.02
2017-11-19T10:00:44.835Z,5.05
2017-11-19T10:01:47.771Z,5.01
2017-11-19T10:02:50.416Z,5.14
2017-11-19T10:03:53.089Z,5.15
2017-11-19T10:04:55.751Z,4.85
2017-11-19T10:05:58.451Z,4.69
2017-11-19T10:07:01.153Z,4.65
2017-11-19T10:08:04.132Z,4.66
2017-11-19T10:09:06.816Z,4.52
2017-11-19T10:10:09.476Z,4.53
2017-11-19T10:11:12.127Z,4.59
2017-11-19T10:12:14.855Z,4.73
2017-11-19T10:13:17.535Z,4.78
2017-11-19T10:14:20.478Z,4.86
2017-11-19T10:15:23.129Z,5.05
2017-11-19T10:16:25.770Z,5.09
2017-11-19T10:17:28.436Z,5.05
2017-11-19T10:18:31.116Z,5.06
2017-11-19T10:19:33.832Z,5.01
2017-11-19T10:20:37.110Z,4.82
2017-11-19T10:21:39.789Z,4.70
2017-11-19T10:22:42.585Z,4.80
2017-11-19T10:23:45.256Z,4.90
2017-11-19T10:24:47.920Z,4.92
2017-11-19T10:25:50.608Z,4.91
2017-11-19T10:26:53.564Z,5.11
2017-11-19T10:27:56.871Z,5.14
2017-11-19T10:28:59.522Z,5.08
2017-11-19T10:30:02.197Z,4.98
2017-11-19T10:31:04.896Z,4.96
2017-11-19T10:32:07.572Z,4.96
2017-11-19T10:33:10.537Z,4.99
2017-11-19T10:34:13.188Z,4.92
2017-11-19T10:35:15.872Z,4.91
2017-11-19T10:36:18.636Z,5.07
2017-11-19T10:37:21.285Z,5.19
2017-11-19T10:38:23.997Z,5.63
2017-11-19T10:39:27.432Z,5.59
2017-11-19T10:40:30.081Z,5.39
2017-11-19T10:41:32.723Z,5.74
2017-11-19T10:42:35.365Z,5.49
2017-11-19T10:43:38.017Z,5.41
2017-11-19T10:44:40.706Z,5.01
2017-11-19T10:45:43.431Z,4.91
2017-11-19T10:46:46.090Z,4.91
2017-11-19T10:47:48.861Z,4.88
2017-11-19T10:48:51.867Z,4.93
2017-11-19T10:49:54.626Z,4.95
2017-11-19T10:50:57.324Z,5.02
2017-11-19T10:52:00.498Z,5.05
2017-11-19T10:53:03.223Z,4.98
2017-11-19T10:54:05.970Z,5.00
2017-11-19T10:55:08.648Z,4.98
2017-11-19T10:56:11.359Z,5.02
2017-11-19T10:57:14.051Z,5.00
2017-11-19T10:58:17.010Z,5.61
2017-11-19T11:15:20.139Z,5.57
2017-11-19T11:16:22.834Z,6.10
2017-11-19T11:17:25.779Z,6.38
2017-11-19T11:18:28.631Z,6.17
2017-11-19T11:19:31.536Z,6.05
2017-11-19T11:20:34.537Z,6.00
2017-11-19T11:21:37.243Z,6.28
2017-11-19T11:22:39.895Z,7.17
2017-11-19T11:23:42.581Z,7.07
2017-11-19T11:24:45.225Z,6.46
2017-11-19T11:25:47.925Z,6.06
2017-11-19T11:26:50.891Z,5.99
2017-11-19T11:27:53.491Z,6.43
2017-11-19T11:28:56.130Z,7.88
2017-11-19T11:29:58.806Z,6.95
2017-11-19T11:31:01.433Z,6.53
2017-11-19T11:32:04.105Z,6.38
2017-11-19T11:33:07.039Z,6.08
2017-11-19T11:34:09.769Z,6.01
2017-11-19T11:35:12.555Z,5.84
2017-11-19T11:36:15.254Z,5.73
2017-11-19T11:37:17.948Z,5.60
2017-11-19T11:38:20.652Z,5.55
2017-11-19T11:39:23.532Z,5.55
2017-11-19T11:40:26.227Z,5.58
2017-11-19T11:41:28.860Z,5.66
2017-11-19T11:42:31.502Z,5.70
2017-11-19T11:43:34.198Z,5.65
2017-11-19T11:44:37.080Z,5.63
2017-11-19T11:45:39.876Z,5.60
2017-11-19T11:46:42.511Z,5.41
2017-11-19T11:47:46.167Z,5.48
2017-11-19T11:48:48.831Z,5.69
2017-11-19T11:49:51.600Z,5.78
2017-11-19T11:50:54.516Z,5.53
2017-11-19T11:51:57.221Z,5.67
2017-11-19T11:52:59.994Z,5.68
2017-11-19T11:54:02.731Z,5.61
2017-11-19T11:55:05.433Z,5.72
2017-11-19T11:56:08.071Z,5.69
2017-11-19T11:57:11.032Z,5.63
2017-11-19T11:58:13.750Z,5.47
2017-11-19T11:59:16.458Z,5.52
2017-11-19T12:00:19.049Z,5.54
2017-11-19T12:01:21.737Z,5.49
2017-11-19T12:02:24.480Z,5.43
2017-11-19T12:03:27.474Z,5.60
2017-11-19T12:04:30.163Z,5.58
2017-11-19T12:05:32.916Z,5.56
2017-11-19T12:06:35.605Z,5.56
2017-11-19T12:07:38.325Z,5.48
2017-11-19T12:08:40.951Z,5.50
2017-11-19T12:09:43.911Z,5.72
2017-11-19T12:10:46.719Z,5.85
2017-11-19T12:11:49.532Z,5.70
2017-11-19T12:12:52.182Z,5.53
2017-11-19T12:13:55.066Z,5.46
2017-11-19T12:14:57.849Z,5.44
2017-11-19T12:16:00.874Z,5.58
2017-11-19T12:17:03.632Z,5.65
2017-11-19T12:18:06.460Z,5.56
2017-11-19T12:19:09.268Z,5.48
2017-11-19T12:20:12.050Z,5.50
2017-11-19T12:21:14.791Z,5.47
2017-11-19T12:22:17.840Z,5.42
2017-11-19T12:23:20.591Z,5.37
2017-11-19T12:24:23.354Z,5.33
2017-11-19T12:25:26.107Z,5.39
2017-11-19T12:26:28.817Z,5.36
2017-11-19T12:27:31.492Z,5.44
2017-11-19T12:28:34.487Z,5.47
2017-11-19T12:29:37.267Z,5.49
2017-11-19T12:30:39.954Z,5.52
2017-11-19T12:31:42.719Z,5.56
2017-11-19T12:32:45.391Z,5.55
2017-11-19T12:33:49.160Z,5.57
2017-11-19T12:34:52.337Z,5.57
2017-11-19T12:35:55.059Z,5.54
2017-11-19T12:36:57.619Z,5.52
2017-11-19T12:38:00.284Z,5.56
2017-11-19T12:39:03.003Z,5.53
2017-11-19T12:40:05.708Z,5.50
2017-11-19T12:41:08.692Z,5.48
2017-11-19T12:42:11.393Z,5.51
2017-11-19T12:43:14.100Z,5.55
2017-11-19T12:44:16.823Z,5.53
2017-11-19T12:45:19.550Z,5.53
2017-11-19T12:46:22.227Z,5.63
2017-11-19T12:47:25.240Z,5.68
2017-11-19T12:48:27.956Z,5.74
2017-11-19T12:49:30.635Z,5.78
2017-11-19T12:50:33.317Z,5.89
2017-11-19T12:51:36.119Z,6.03
2017-11-19T12:52:38.822Z,6.08
2017-11-19T12:53:42.132Z,6.61
2017-11-19T12:54:44.783Z,6.13
2017-11-19T12:55:47.615Z,5.96
2017-11-19T12:56:50.331Z,5.94
2017-11-19T12:57:53.043Z,5.86
2017-11-19T12:58:55.795Z,5.83
2017-11-19T12:59:58.911Z,5.84
2017-11-19T13:01:01.559Z,5.88
2017-11-19T13:02:04.305Z,5.91
2017-11-19T13:03:07.003Z,5.89
2017-11-19T13:04:09.777Z,6.07
2017-11-19T13:05:12.379Z,6.32
2017-11-19T13:06:15.295Z,6.39
2017-11-19T13:07:17.921Z,6.37
2017-11-19T13:08:20.664Z,6.27
2017-11-19T13:09:23.303Z,6.10
2017-11-19T13:10:25.951Z,6.05
2017-11-19T13:11:28.638Z,6.07
2017-11-19T13:12:31.263Z,5.93
2017-11-19T13:13:33.886Z,5.94
2017-11-19T13:14:36.524Z,5.95
2017-11-19T13:15:39.203Z,5.98
2017-11-19T13:16:41.890Z,5.93
2017-11-19T13:17:44.896Z,5.91
2017-11-19T13:18:47.573Z,5.88
2017-11-19T13:19:50.271Z,5.92
2017-11-19T13:20:53.030Z,5.92
2017-11-19T13:21:55.755Z,5.98
2017-11-19T13:22:58.400Z,6.14
2017-11-19T13:24:02.042Z,6.21
2017-11-19T13:25:04.681Z,6.29
2017-11-19T13:26:07.338Z,6.26
2017-11-19T13:27:10.700Z,6.50
2017-11-19T13:28:13.456Z,6.88
2017-11-19T13:29:18.449Z,7.68
2017-11-19T13:30:21.537Z,7.73
2017-11-19T13:31:24.280Z,8.03
2017-11-19T13:32:26.931Z,7.66
2017-11-19T13:33:29.605Z,6.86
2017-11-19T13:34:32.296Z,6.65
2017-11-19T13:35:35.930Z,6.73
2017-11-19T13:36:38.683Z,7.31
2017-11-19T13:37:41.819Z,8.22
2017-11-19T13:38:44.538Z,7.88
2017-11-19T13:39:47.290Z,6.80
2017-11-19T13:40:49.978Z,6.61
2017-11-19T13:41:52.756Z,6.54
2017-11-19T13:42:55.879Z,6.54
2017-11-19T13:43:58.619Z,6.58
2017-11-19T13:45:01.277Z,6.43
2017-11-19T13:46:03.976Z,6.45
2017-11-19T13:47:06.727Z,6.38
2017-11-19T13:48:09.519Z,6.28
2017-11-19T13:49:12.606Z,6.25
2017-11-19T13:50:15.340Z,6.19
2017-11-19T13:51:18.207Z,6.07
2017-11-19T13:52:20.907Z,6.06
2017-11-19T13:53:23.600Z,6.07
2017-11-19T13:54:26.730Z,5.99
2017-11-19T13:55:29.728Z,6.04
2017-11-19T13:56:32.446Z,5.99
2017-11-19T13:57:35.092Z,5.96
2017-11-19T13:58:37.824Z,5.86
2017-11-19T13:59:40.500Z,5.88
2017-11-19T14:00:43.277Z,5.91
2017-11-19T14:01:46.437Z,5.91
2017-11-19T14:02:49.137Z,5.86
2017-11-19T14:03:51.995Z,5.80
2017-11-19T14:04:54.695Z,5.77
2017-11-19T14:05:57.488Z,5.75
2017-11-19T14:07:00.174Z,5.73
2017-11-19T14:08:04.207Z,5.75
2017-11-19T14:09:06.904Z,5.75
2017-11-19T14:10:09.628Z,5.73
2017-11-19T14:11:12.337Z,5.73
2017-11-19T14:12:15.081Z,5.74
2017-11-19T14:13:17.744Z,5.73
2017-11-19T14:14:20.774Z,5.73
2017-11-19T14:15:23.518Z,5.77
2017-11-19T14:16:26.234Z,5.80
2017-11-19T14:17:28.935Z,5.77
2017-11-19T14:18:31.598Z,5.77
2017-11-19T14:19:34.305Z,5.73
2017-11-19T14:20:37.334Z,5.75
2017-11-19T14:21:39.992Z,5.79
2017-11-19T14:22:42.684Z,5.89
2017-11-19T14:23:45.410Z,5.92
2017-11-19T14:24:48.161Z,5.81
2017-11-19T14:25:50.815Z,5.74